createdAt,value
2023-04-18T00:02:51.500Z,2.30
2023-04-18T00:05:54.081Z,2.70
2023-04-18T00:08:56.426Z,2.47
2023-04-18T00:11:58.867Z,2.40
2023-04-18T00:15:02.378Z,2.42
2023-04-18T00:18:06.063Z,2.17
2023-04-18T00:21:08.824Z,2.50
2023-04-18T00:24:11.079Z,2.30
2023-04-18T00:27:13.445Z,2.45
2023-04-18T00:30:15.892Z,2.42
2023-04-18T00:33:17.865Z,2.45
2023-04-18T00:36:20.389Z,2.77
2023-04-18T00:39:22.438Z,2.95
2023-04-18T00:42:26.111Z,3.33
2023-04-18T00:45:28.496Z,2.95
2023-04-18T00:48:30.624Z,2.37
2023-04-18T00:51:33.488Z,3.10
2023-04-18T00:54:35.427Z,2.95
2023-04-18T00:57:37.680Z,2.90
2023-04-18T01:00:39.713Z,2.67
2023-04-18T01:03:41.894Z,2.80
2023-04-18T01:06:45.642Z,2.70
2023-04-18T01:09:47.653Z,2.78
2023-04-18T01:12:49.780Z,2.83
2023-04-18T01:15:51.879Z,2.72
2023-04-18T01:18:54.296Z,3.17
2023-04-18T01:21:57.026Z,3.60
2023-04-18T01:24:59.065Z,3.30
2023-04-18T01:28:01.089Z,2.73
2023-04-18T01:31:03.759Z,2.95
2023-04-18T01:34:06.271Z,3.40
2023-04-18T01:37:08.722Z,3.05
2023-04-18T01:40:11.289Z,3.50
2023-04-18T01:43:13.250Z,3.20
2023-04-18T01:46:16.865Z,3.80
2023-04-18T01:49:19.139Z,3.50
2023-04-18T01:52:21.162Z,3.45
2023-04-18T01:55:25.375Z,3.33
2023-04-18T01:58:28.737Z,3.58
2023-04-18T02:01:31.704Z,3.90
2023-04-18T02:04:34.711Z,3.40
2023-04-18T02:07:36.936Z,3.65
2023-04-18T02:10:38.928Z,3.50
2023-04-18T02:13:41.324Z,3.60
2023-04-18T02:16:43.967Z,3.42
2023-04-18T02:19:46.730Z,3.30
2023-04-18T02:22:49.308Z,3.42
2023-04-18T02:25:51.783Z,4.03
2023-04-18T02:28:53.867Z,3.53
2023-04-18T02:31:58.432Z,4.28
2023-04-18T02:35:00.825Z,3.80
2023-04-18T02:38:03.053Z,4.30
2023-04-18T02:41:05.510Z,4.13
2023-04-18T02:44:08.656Z,4.13
2023-04-18T02:47:13.467Z,4.00
2023-04-18T02:50:17.886Z,3.97
2023-04-18T02:53:23.892Z,4.90
2023-04-18T02:56:29.070Z,4.15
2023-04-18T02:59:51.219Z,3.78
2023-04-18T03:03:17.156Z,4.50
2023-04-18T03:06:31.782Z,4.55
2023-04-18T03:09:37.070Z,3.83
2023-04-18T03:12:47.784Z,4.20
2023-04-18T03:15:52.364Z,4.40
2023-04-18T03:18:54.986Z,4.00
2023-04-18T03:21:58.313Z,4.60
2023-04-18T03:25:00.824Z,4.70
2023-04-18T03:28:32.097Z,4.40
2023-04-18T03:31:34.444Z,4.80
2023-04-18T03:34:36.607Z,4.22
2023-04-18T03:37:41.848Z,4.43
2023-04-18T03:40:45.302Z,4.90
2023-04-18T03:43:55.817Z,4.75
2023-04-18T03:46:57.898Z,4.97
2023-04-18T03:50:01.272Z,4.57
2023-04-18T03:53:04.040Z,4.78
2023-04-18T03:56:09.792Z,4.82
2023-04-18T03:59:23.888Z,4.53
2023-04-18T04:02:26.443Z,4.55
2023-04-18T04:05:28.760Z,4.90
2023-04-18T04:08:31.110Z,4.63
2023-04-18T04:11:33.279Z,4.37
2023-04-18T04:14:35.968Z,4.85
2023-04-18T04:17:38.697Z,4.90
2023-04-18T04:20:41.429Z,4.45
2023-04-18T04:23:49.991Z,5.10
2023-04-18T04:27:13.718Z,5.70
2023-04-18T04:30:17.524Z,5.10
2023-04-18T04:33:20.861Z,5.97
2023-04-18T04:36:24.748Z,5.80
2023-04-18T04:39:27.825Z,5.30
2023-04-18T04:42:44.264Z,5.32
2023-04-18T04:45:53.514Z,5.07
2023-04-18T04:48:59.253Z,4.95
2023-04-18T04:52:02.916Z,4.75
2023-04-18T04:55:05.674Z,4.63
2023-04-18T04:58:09.070Z,5.40
2023-04-18T05:01:29.636Z,5.03
2023-04-18T05:04:32.391Z,4.88
2023-04-18T05:07:34.961Z,5.10
2023-04-18T05:10:37.275Z,5.13
2023-04-18T05:13:39.370Z,5.22
2023-04-18T05:16:41.746Z,5.40
2023-04-18T05:19:44.282Z,5.47
2023-04-18T05:22:46.725Z,4.90
2023-04-18T05:25:48.817Z,5.07
2023-04-18T05:28:51.629Z,5.32
2023-04-18T05:31:53.647Z,4.90
2023-04-18T05:34:56.015Z,4.63
2023-04-18T05:37:58.419Z,4.70
2023-04-18T05:41:00.583Z,5.18
2023-04-18T05:44:05.596Z,5.35
2023-04-18T05:47:08.452Z,4.38
2023-04-18T05:50:13.247Z,4.43
2023-04-18T05:53:18.670Z,4.93
2023-04-18T05:56:21.400Z,4.07
2023-04-18T05:59:23.528Z,3.15
2023-04-18T06:02:48.492Z,3.65
2023-04-18T06:05:53.151Z,2.70
2023-04-18T06:08:55.445Z,2.70
2023-04-18T06:12:14.729Z,2.33
2023-04-18T06:15:23.091Z,1.73
2023-04-18T06:18:25.983Z,1.80
2023-04-18T06:21:28.598Z,2.30
2023-04-18T06:24:31.353Z,2.10
2023-04-18T06:27:33.390Z,2.00
2023-04-18T06:31:09.078Z,2.08
2023-04-18T06:34:20.192Z,1.90
2023-04-18T06:37:22.986Z,2.07
2023-04-18T06:40:26.006Z,1.98
2023-04-18T06:43:28.264Z,1.75
2023-04-18T06:46:30.646Z,1.67
2023-04-18T06:49:32.990Z,1.70
2023-04-18T06:52:40.475Z,1.80
2023-04-18T06:55:42.547Z,1.50
2023-04-18T06:58:44.701Z,1.70
2023-04-18T07:01:46.799Z,1.92
2023-04-18T07:04:49.207Z,3.90
2023-04-18T07:07:51.506Z,3.28
2023-04-18T07:10:54.031Z,3.25
2023-04-18T07:13:56.423Z,1.75
2023-04-18T07:16:58.682Z,1.92
2023-04-18T07:20:01.008Z,1.77
2023-04-18T07:23:03.675Z,2.03
2023-04-18T07:26:06.677Z,1.70
2023-04-18T07:29:09.287Z,1.70
2023-04-18T07:32:11.596Z,3.25
2023-04-18T07:35:13.622Z,1.60
2023-04-18T07:38:16.094Z,1.00
2023-04-18T07:41:31.483Z,1.90
2023-04-18T07:44:52.553Z,1.40
2023-04-18T07:47:56.778Z,1.35
2023-04-18T07:50:59.050Z,1.20
2023-04-18T07:54:01.503Z,1.10
2023-04-18T07:57:04.124Z,1.02
2023-04-18T08:00:07.116Z,1.30
2023-04-18T08:03:14.904Z,1.08
2023-04-18T08:06:17.808Z,0.87
2023-04-18T08:09:20.812Z,1.27
2023-04-18T08:12:22.986Z,1.10
2023-04-18T08:15:27.609Z,1.10
2023-04-18T08:18:29.734Z,1.05
2023-04-18T08:21:32.059Z,0.90
2023-04-18T08:24:34.109Z,1.20
2023-04-18T08:27:36.368Z,1.17
2023-04-18T08:30:40.818Z,0.70
2023-04-18T08:33:43.165Z,1.20
2023-04-18T08:36:48.251Z,1.37
2023-04-18T08:39:50.452Z,1.00
2023-04-18T08:42:52.785Z,1.13
2023-04-18T08:45:58.527Z,1.00
2023-04-18T08:49:00.741Z,1.30
2023-04-18T08:52:03.385Z,1.30
2023-04-18T08:55:06.177Z,1.30
2023-04-18T08:58:08.568Z,1.40
2023-04-18T09:01:10.826Z,1.25
2023-04-18T09:04:14.177Z,1.05
2023-04-18T09:07:16.901Z,1.27
2023-04-18T09:10:28.725Z,1.02
2023-04-18T09:13:38.556Z,0.90
2023-04-18T09:16:50.756Z,0.80
2023-04-18T09:19:54.566Z,0.70
2023-04-18T09:22:58.201Z,0.73
2023-04-18T09:26:00.850Z,0.80
2023-04-18T09:29:03.415Z,0.90
2023-04-18T09:32:05.866Z,0.88
2023-04-18T09:35:09.565Z,0.85
2023-04-18T09:38:11.746Z,0.90
2023-04-18T09:41:15.882Z,0.95
2023-04-18T09:44:20.260Z,0.85
2023-04-18T09:47:22.733Z,0.98
2023-04-18T09:50:25.112Z,1.10
2023-04-18T09:53:27.600Z,1.13
2023-04-18T09:56:31.982Z,0.88
2023-04-18T09:59:47.930Z,0.90
2023-04-18T10:02:53.557Z,1.20
2023-04-18T10:05:57.665Z,1.00
2023-04-18T10:09:00.510Z,0.90
2023-04-18T10:12:03.156Z,1.20
2023-04-18T10:15:06.605Z,0.95
2023-04-18T10:18:14.727Z,0.85
2023-04-18T10:21:16.875Z,1.00
2023-04-18T10:24:54.926Z,0.80
2023-04-18T10:27:58.441Z,1.10
2023-04-18T10:31:04.128Z,0.90
2023-04-18T10:34:06.658Z,1.48
2023-04-18T10:37:09.033Z,1.30
2023-04-18T10:40:11.551Z,1.17
2023-04-18T10:43:14.032Z,1.15
2023-04-18T10:46:32.510Z,1.08
2023-04-18T10:49:51.572Z,1.10
2023-04-18T10:53:02.047Z,1.20
2023-04-18T10:56:04.201Z,1.63
2023-04-18T10:59:06.781Z,1.10
2023-04-18T11:02:25.503Z,1.65
2023-04-18T11:05:28.515Z,1.42
2023-04-18T11:08:30.578Z,1.35
2023-04-18T11:11:33.043Z,0.90
2023-04-18T11:14:44.998Z,1.00
2023-04-18T11:17:47.296Z,1.65
2023-04-18T11:20:50.515Z,1.23
2023-04-18T11:23:53.403Z,1.20
2023-04-18T11:26:56.508Z,1.30
2023-04-18T11:29:58.830Z,1.10
2023-04-18T11:33:04.766Z,1.48
2023-04-18T11:36:07.714Z,1.40
2023-04-18T11:39:10.665Z,1.27
2023-04-18T11:42:13.086Z,1.27
2023-04-18T11:45:15.356Z,1.33
2023-04-18T11:48:17.592Z,1.63
2023-04-18T11:51:34.147Z,1.70
2023-04-18T11:54:39.740Z,1.67
2023-04-18T11:57:42.112Z,1.60
2023-04-18T12:00:44.425Z,1.80
2023-04-18T12:04:03.246Z,1.50
2023-04-18T12:07:05.584Z,1.75
2023-04-18T12:10:19.975Z,1.70
2023-04-18T12:13:26.763Z,1.80
2023-04-18T12:16:28.985Z,1.50
2023-04-18T12:19:32.711Z,1.30
2023-04-18T12:22:42.174Z,1.42
2023-04-18T12:25:44.214Z,1.13
2023-04-18T12:28:48.089Z,1.83
2023-04-18T12:31:53.162Z,1.45
2023-04-18T12:34:55.933Z,2.00
2023-04-18T12:37:58.974Z,1.17
2023-04-18T12:41:01.644Z,3.50
2023-04-18T12:44:04.610Z,1.43
2023-04-18T12:47:11.445Z,1.30
2023-04-18T12:50:20.610Z,1.95
2023-04-18T12:53:22.698Z,1.80
2023-04-18T12:56:24.777Z,1.35
2023-04-18T12:59:27.982Z,1.83
2023-04-18T13:02:30.286Z,2.60
2023-04-18T13:05:33.916Z,1.35
2023-04-18T13:08:37.859Z,1.40
2023-04-18T13:11:40.593Z,1.38
2023-04-18T13:14:42.680Z,1.50
2023-04-18T13:18:16.606Z,1.45
2023-04-18T13:21:19.073Z,1.90
2023-04-18T13:24:21.710Z,2.05
2023-04-18T13:27:23.681Z,1.38
2023-04-18T13:30:25.918Z,1.30
2023-04-18T13:33:28.369Z,2.17
2023-04-18T13:36:31.787Z,3.20
2023-04-18T13:39:34.548Z,2.33
2023-04-18T13:42:37.145Z,1.40
2023-04-18T13:45:40.179Z,1.80
2023-04-18T13:48:43.385Z,1.20
2023-04-18T13:51:46.620Z,1.70
2023-04-18T13:54:49.348Z,1.40
2023-04-18T13:57:52.020Z,1.85
2023-04-18T14:00:54.188Z,1.70
2023-04-18T14:03:56.910Z,1.65
2023-04-18T14:06:59.699Z,1.80
2023-04-18T14:10:02.028Z,2.00
2023-04-18T14:13:04.329Z,1.70
2023-04-18T14:16:06.734Z,1.67
2023-04-18T14:19:09.528Z,1.50
2023-04-18T14:22:12.121Z,2.00
2023-04-18T14:25:14.644Z,1.65
2023-04-18T14:28:18.967Z,1.60
2023-04-18T14:31:21.550Z,1.70
2023-04-18T14:34:23.537Z,2.08
2023-04-18T14:37:25.494Z,1.60
2023-04-18T14:40:28.000Z,1.98
2023-04-18T14:43:30.349Z,2.13
2023-04-18T14:46:32.584Z,2.03
2023-04-18T14:49:34.652Z,2.28
2023-04-18T14:52:36.696Z,1.90
2023-04-18T14:55:38.623Z,2.17
2023-04-18T14:58:41.097Z,2.20
2023-04-18T15:01:43.177Z,1.43
2023-04-18T15:04:45.673Z,2.08
2023-04-18T15:07:47.901Z,1.77
2023-04-18T15:10:50.597Z,1.92
2023-04-18T15:13:52.634Z,1.90
2023-04-18T15:16:54.830Z,2.07
2023-04-18T15:19:58.233Z,2.20
2023-04-18T15:23:01.524Z,2.20
2023-04-18T15:26:03.622Z,2.10
2023-04-18T15:29:06.221Z,2.10
2023-04-18T15:32:09.856Z,2.00
2023-04-18T15:35:12.826Z,1.88
2023-04-18T15:38:15.208Z,2.10
2023-04-18T15:41:17.675Z,2.33
2023-04-18T15:44:20.127Z,2.38
2023-04-18T15:47:23.462Z,1.90
2023-04-18T15:50:26.380Z,2.20
2023-04-18T15:53:30.004Z,2.10
2023-04-18T16:00:28.975Z,2.03
2023-04-18T16:03:31.802Z,2.03
2023-04-18T16:06:34.230Z,1.48
2023-04-18T16:09:36.755Z,1.80
2023-04-18T16:12:39.215Z,2.10
2023-04-18T16:15:43.834Z,1.70
2023-04-18T16:18:47.258Z,1.93
2023-04-18T16:21:49.984Z,2.10
2023-04-18T16:24:52.799Z,1.77
2023-04-18T16:27:54.998Z,1.90
2023-04-18T16:30:58.334Z,1.80
2023-04-18T16:34:03.213Z,1.73
2023-04-18T16:37:05.711Z,2.30
2023-04-18T16:40:09.930Z,2.13
2023-04-18T16:43:12.396Z,2.28
2023-04-18T16:46:14.971Z,1.98
2023-04-18T16:49:17.017Z,2.27
2023-04-18T16:52:20.025Z,2.22
2023-04-18T16:55:26.426Z,2.40
2023-04-18T16:58:28.685Z,2.65
2023-04-18T17:01:30.767Z,2.35
2023-04-18T17:04:33.244Z,2.37
2023-04-18T17:07:36.007Z,2.42
2023-04-18T17:10:38.108Z,2.60
2023-04-18T17:13:40.390Z,5.13
2023-04-18T17:16:42.629Z,3.55
2023-04-18T17:19:46.026Z,3.30
2023-04-18T17:22:48.085Z,2.72
2023-04-18T17:25:50.136Z,2.75
2023-04-18T17:28:52.768Z,3.22
2023-04-18T17:31:55.469Z,3.30
2023-04-18T17:34:57.647Z,4.03
2023-04-18T17:37:59.681Z,3.83
2023-04-18T17:41:02.095Z,3.72
2023-04-18T17:44:04.687Z,3.10
2023-04-18T17:47:07.243Z,3.90
2023-04-18T17:50:09.485Z,4.07
2023-04-18T17:53:12.408Z,3.40
2023-04-18T17:56:14.718Z,3.28
2023-04-18T17:59:17.104Z,2.90
2023-04-18T18:02:19.947Z,3.08
2023-04-18T18:05:22.085Z,2.70
2023-04-18T18:08:25.011Z,3.10
2023-04-18T18:11:30.257Z,3.60
2023-04-18T18:14:32.309Z,4.55
2023-04-18T18:17:34.760Z,4.28
2023-04-18T18:20:37.188Z,3.90
2023-04-18T18:23:39.732Z,4.10
2023-04-18T18:26:41.879Z,3.92
2023-04-18T18:29:43.954Z,5.13
2023-04-18T18:32:46.444Z,4.40
2023-04-18T18:35:48.658Z,5.50
2023-04-18T18:38:50.828Z,5.43
2023-04-18T18:41:53.192Z,6.20
2023-04-18T18:44:55.817Z,5.40
2023-04-18T18:47:57.797Z,4.90
2023-04-18T18:51:00.364Z,13.10
2023-04-18T18:54:02.565Z,19.15
2023-04-18T18:57:04.971Z,20.80
2023-04-18T19:00:11.242Z,21.67
2023-04-18T19:03:13.782Z,7.90
2023-04-18T19:06:22.394Z,3.37
2023-04-18T19:09:26.253Z,3.08
2023-04-18T19:12:29.279Z,2.85
2023-04-18T19:15:31.421Z,2.40
2023-04-18T19:18:33.931Z,4.43
2023-04-18T19:21:35.958Z,5.13
2023-04-18T19:24:38.098Z,6.55
2023-04-18T19:27:40.026Z,5.40
2023-04-18T19:30:42.377Z,3.10
2023-04-18T19:33:44.710Z,3.13
2023-04-18T19:36:46.866Z,2.97
2023-04-18T19:39:48.870Z,2.67
2023-04-18T19:42:50.928Z,3.00
2023-04-18T19:45:55.158Z,2.58
2023-04-18T19:48:57.402Z,2.40
2023-04-18T19:51:59.434Z,2.60
2023-04-18T19:55:01.711Z,2.35
2023-04-18T19:58:05.253Z,2.20
2023-04-18T20:01:09.966Z,2.22
2023-04-18T20:04:12.242Z,2.42
2023-04-18T20:07:14.601Z,2.20
2023-04-18T20:10:18.954Z,2.00
2023-04-18T20:13:21.023Z,2.65
2023-04-18T20:16:23.762Z,1.98
2023-04-18T20:19:26.901Z,1.90
2023-04-18T20:22:29.304Z,1.93
2023-04-18T20:25:31.941Z,1.90
2023-04-18T20:28:34.024Z,1.98
2023-04-18T20:31:37.745Z,1.95
2023-04-18T20:34:40.414Z,1.58
2023-04-18T20:37:42.855Z,2.10
2023-04-18T20:40:45.021Z,1.83
2023-04-18T20:43:47.499Z,1.52
2023-04-18T20:46:50.089Z,1.83
2023-04-18T20:49:52.196Z,1.77
2023-04-18T20:52:55.294Z,1.57
2023-04-18T20:55:57.263Z,1.90
2023-04-18T20:59:01.317Z,1.70
2023-04-18T21:02:03.834Z,2.10
2023-04-18T21:05:05.973Z,1.75
2023-04-18T21:08:08.212Z,2.10
2023-04-18T21:11:10.605Z,2.17
2023-04-18T21:14:12.819Z,2.30
2023-04-18T21:17:17.456Z,1.90
2023-04-18T21:20:19.605Z,1.65
2023-04-18T21:23:23.052Z,2.43
2023-04-18T21:26:25.543Z,2.40
2023-04-18T21:29:27.951Z,2.58
2023-04-18T21:32:30.541Z,2.47
2023-04-18T21:35:32.964Z,2.25
2023-04-18T21:38:35.161Z,2.30
2023-04-18T21:41:37.177Z,2.38
2023-04-18T21:44:39.295Z,2.55
2023-04-18T21:47:41.382Z,2.50
2023-04-18T21:50:43.715Z,3.00
2023-04-18T21:53:46.124Z,3.40
2023-04-18T21:56:48.158Z,2.40
2023-04-18T21:59:50.308Z,2.45
2023-04-18T22:02:52.867Z,2.80
2023-04-18T22:05:57.948Z,2.60
2023-04-18T22:09:01.116Z,2.63
2023-04-18T22:12:04.328Z,2.22
2023-04-18T22:15:07.308Z,2.55
2023-04-18T22:18:09.344Z,3.30
2023-04-18T22:21:11.370Z,5.70
2023-04-18T22:24:21.776Z,3.33
2023-04-18T22:27:31.057Z,3.40
2023-04-18T22:30:33.051Z,2.75
2023-04-18T22:33:35.052Z,3.03
2023-04-18T22:36:37.633Z,3.08
2023-04-18T22:39:40.024Z,2.60
2023-04-18T22:42:43.405Z,2.70
2023-04-18T22:45:46.158Z,2.95
2023-04-18T22:48:49.273Z,3.05
2023-04-18T22:51:54.472Z,3.05
2023-04-18T22:54:56.740Z,2.97
2023-04-18T22:57:58.703Z,2.83
2023-04-18T23:01:00.726Z,3.28
2023-04-18T23:04:03.289Z,3.03
2023-04-18T23:07:06.055Z,2.95
2023-04-18T23:10:08.476Z,3.00
2023-04-18T23:13:10.537Z,3.20
2023-04-18T23:16:13.141Z,3.22
2023-04-18T23:19:15.083Z,2.83
2023-04-18T23:22:17.694Z,2.60
2023-04-18T23:25:20.060Z,3.50
2023-04-18T23:28:22.197Z,2.88
2023-04-18T23:31:24.849Z,2.90
2023-04-18T23:34:27.045Z,2.95
2023-04-18T23:37:28.985Z,2.63
2023-04-18T23:40:30.933Z,3.10
2023-04-18T23:43:33.333Z,3.10
2023-04-18T23:46:36.687Z,3.10
2023-04-18T23:49:38.956Z,3.00
2023-04-18T23:52:41.199Z,3.30
2023-04-18T23:55:43.301Z,3.10
2023-04-18T23:58:45.686Z,2.90
